createdAt,value
2023-01-18T13:07:07.571Z,39.06
2023-01-18T13:08:07.457Z,38.96
2023-01-18T13:09:07.344Z,38.81
2023-01-18T13:10:07.250Z,38.78
2023-01-18T13:11:07.167Z,38.65
2023-01-18T13:12:07.102Z,38.56
2023-01-18T13:13:06.985Z,38.52
2023-01-18T13:15:06.793Z,38.37
2023-01-18T13:16:06.713Z,38.29
2023-01-18T13:17:06.647Z,38.21
2023-01-18T13:18:06.617Z,38.20
2023-01-18T13:19:06.606Z,38.13
2023-01-18T13:20:06.561Z,38.09
2023-01-18T13:21:06.532Z,38.02
2023-01-18T13:22:06.508Z,37.96
2023-01-18T13:23:06.473Z,37.88
2023-01-18T13:24:06.442Z,37.88
2023-01-18T13:25:06.422Z,37.80
2023-01-18T13:26:06.421Z,37.75
2023-01-18T13:27:06.374Z,37.74
2023-01-18T13:28:06.352Z,37.67
2023-01-18T13:29:06.314Z,37.62
2023-01-18T13:30:06.292Z,37.57
2023-01-18T13:31:06.405Z,37.58
2023-01-18T13:32:06.238Z,37.54
2023-01-18T13:33:06.225Z,37.54
2023-01-18T13:34:06.198Z,37.47
2023-01-18T13:35:19.608Z,37.43
2023-01-18T13:36:07.127Z,37.41
2023-01-18T13:37:15.062Z,37.35
2023-01-18T13:38:06.887Z,37.35
2023-01-18T13:39:05.782Z,37.31
2023-01-18T13:40:05.696Z,37.26
2023-01-18T13:41:05.605Z,37.26
2023-01-18T13:42:05.518Z,37.21
2023-01-18T14:49:00.220Z,35.37
2023-01-18T14:50:00.141Z,35.32
2023-01-18T14:51:00.049Z,35.30
2023-01-18T14:51:59.979Z,35.33
2023-01-18T14:53:00.428Z,35.30
2023-01-18T14:53:59.807Z,35.26
2023-01-18T14:54:59.728Z,35.22
2023-01-18T14:55:59.652Z,35.26
2023-01-18T14:56:59.567Z,35.18
2023-01-18T14:57:59.497Z,35.20
2023-01-18T14:58:59.429Z,35.22
2023-01-18T14:59:59.332Z,35.15
2023-01-18T15:00:59.348Z,35.16
2023-01-18T15:01:59.354Z,35.16
2023-01-18T15:02:59.385Z,35.16
2023-01-18T15:03:59.019Z,35.12
2023-01-18T15:04:58.942Z,35.11
2023-01-18T15:05:58.852Z,35.08
2023-01-18T15:06:58.767Z,35.14
2023-01-18T15:07:58.705Z,35.10
2023-01-18T15:08:58.628Z,35.08
2023-01-18T15:09:58.548Z,35.07
2023-01-18T15:10:58.469Z,35.08
2023-01-18T15:11:58.397Z,35.00
2023-01-18T15:12:58.759Z,34.98
2023-01-18T15:13:58.283Z,34.82
2023-01-18T15:14:58.187Z,34.69
2023-01-18T15:16:00.975Z,34.77
2023-01-18T15:16:58.035Z,34.78
2023-01-18T15:17:58.319Z,34.76
2023-01-18T15:18:57.835Z,34.75
2023-01-18T15:19:57.739Z,34.60
2023-01-18T15:20:57.652Z,34.74
2023-01-18T15:21:57.540Z,34.61
2023-01-18T15:22:57.811Z,34.51
2023-01-18T15:23:57.356Z,34.52
2023-01-18T15:24:57.254Z,34.46
2023-01-18T15:25:57.168Z,34.47
2023-01-18T15:26:57.071Z,34.46
2023-01-18T15:27:56.986Z,34.46
2023-01-18T15:28:56.887Z,34.43
2023-01-18T15:29:56.824Z,34.47
2023-01-18T15:30:56.714Z,34.46
2023-01-18T15:31:56.635Z,34.48
2023-01-18T15:32:56.651Z,34.46
2023-01-18T15:33:56.421Z,34.43
2023-01-18T15:34:56.323Z,34.44
2023-01-18T15:35:56.240Z,34.42
2023-01-18T15:36:56.138Z,34.41
2023-01-18T15:37:56.061Z,34.42
2023-01-18T15:38:55.943Z,34.38
2023-01-18T15:39:55.854Z,34.41
2023-01-18T15:40:55.765Z,34.39
2023-01-18T15:41:55.649Z,34.38
2023-01-18T15:42:55.558Z,34.35
2023-01-18T17:32:48.297Z,33.50
2023-01-18T17:40:47.897Z,33.45
2023-01-18T17:46:47.662Z,33.40
2023-01-18T18:06:54.178Z,33.33
2023-01-18T18:07:47.533Z,33.28
2023-01-18T18:08:46.429Z,33.27
2023-01-18T18:09:46.333Z,33.26
2023-01-18T18:10:46.239Z,33.26
2023-01-18T18:11:46.145Z,33.28
2023-01-18T18:12:46.031Z,33.28
2023-01-18T18:13:45.960Z,33.23
2023-01-18T18:14:45.852Z,33.22
2023-01-18T18:15:45.806Z,33.18
2023-01-18T18:16:45.712Z,33.23
2023-01-18T18:17:45.585Z,33.22
2023-01-18T21:36:36.041Z,32.15
2023-01-18T21:37:35.997Z,32.15
2023-01-18T21:38:35.955Z,32.17
2023-01-18T21:39:35.942Z,32.13
2023-01-18T21:40:35.859Z,32.11
2023-01-18T21:41:35.813Z,32.11
2023-01-18T21:42:35.763Z,32.11
2023-01-18T21:43:35.712Z,32.13
2023-01-18T21:44:35.680Z,32.08
2023-01-18T21:45:35.657Z,32.08
2023-01-18T21:46:35.584Z,32.10
2023-01-18T21:47:35.546Z,32.05
2023-01-18T21:48:35.498Z,32.04
2023-01-18T23:02:33.120Z,31.70
2023-01-18T23:03:33.131Z,31.74
2023-01-18T23:04:33.067Z,31.70
2023-01-18T23:05:33.040Z,31.75
2023-01-18T23:06:33.016Z,31.70
2023-01-18T23:07:32.990Z,31.70
2023-01-18T23:08:32.963Z,31.73
2023-01-18T23:09:32.936Z,31.70
2023-01-18T23:10:32.916Z,31.66
2023-01-18T23:11:32.882Z,31.72
2023-01-18T23:12:32.851Z,31.66
2023-01-18T23:13:32.840Z,31.66
2023-01-18T23:14:32.809Z,31.65
2023-01-18T23:15:32.818Z,31.63
2023-01-18T23:16:32.757Z,31.69
2023-01-18T23:17:32.724Z,31.66
2023-01-18T23:18:32.740Z,31.65
2023-01-18T23:19:32.673Z,31.60
2023-01-18T23:20:32.650Z,31.59
2023-01-18T23:21:32.628Z,31.63
2023-01-18T23:22:32.594Z,31.57
2023-01-18T23:23:32.562Z,31.60
2023-01-18T23:24:32.521Z,31.57
2023-01-18T23:25:32.494Z,31.62
2023-01-18T23:26:32.482Z,31.59
2023-01-18T23:27:32.453Z,31.56
2023-01-18T23:28:32.406Z,31.59
2023-01-18T23:29:32.385Z,31.55
2023-01-18T23:30:32.382Z,31.58
2023-01-18T23:31:32.384Z,31.55
2023-01-18T23:32:32.313Z,31.56
2023-01-18T23:33:32.289Z,31.56
2023-01-18T23:34:32.273Z,31.56
2023-01-18T23:35:32.220Z,31.56
2023-01-18T23:36:32.209Z,31.52
2023-01-18T23:37:32.186Z,31.55
2023-01-18T23:38:32.155Z,31.49
2023-01-18T23:39:32.206Z,31.54
2023-01-18T23:40:32.113Z,31.54
2023-01-18T23:41:32.106Z,31.52
2023-01-18T23:42:32.077Z,31.52
2023-01-18T23:43:32.041Z,31.49
2023-01-18T23:44:32.030Z,31.48
2023-01-18T23:45:32.009Z,31.51
2023-01-18T23:46:32.097Z,31.49
2023-01-18T23:57:31.733Z,31.42
2023-01-18T23:58:31.713Z,31.38
2023-01-18T23:59:31.686Z,31.42
